FDX5809 PANC-RJBB
Flight info
| Callsign | FDX5809 |
|---|---|
| Flight time | N/A |
| Altitude | 34000 |
| Route | NODLE R220 NICHO/N0486F350 R220 NANDY/N0487F360 R220 NRKEY/N0484F370 R220 NUBDA/N0476F380 R220 IXE Y88 NAKTU Y12 KEC Y43 KISEI Y46 EVERT |
| Aircraft | B77L/H-SDE1E2E3FGHIJ2J3J4J5M1RWXY/LB1D1 |
Departure
| Time | 2026-05-08 00:19 |
|---|---|
| Airport | Ted Stevens Anchorage International Airport (PANC) |
Arrival
| Time | N/A |
|---|---|
| Airport | Kansai International Airport (RJBB) |
| Time | Latitude | Longitude | Altitude | Speed | Heading |
|---|---|---|---|---|---|
| 2026-05-07 23:34 | 61.18803 | -150.00165 | 166 ft | 0 kts | 256° |
| 2026-05-08 00:06 | 61.18806 | -150.00136 | 165 ft | 2 kts | 256° |
| 2026-05-08 00:07 | 61.18810 | -150.00107 | 165 ft | 2 kts | 256° |
| 2026-05-08 00:07 | 61.18813 | -150.00076 | 165 ft | 1 kts | 256° |
| 2026-05-08 00:07 | 61.18816 | -150.00058 | 165 ft | 2 kts | 250° |
| 2026-05-08 00:07 | 61.18824 | -150.00032 | 165 ft | 2 kts | 219° |
| 2026-05-08 00:08 | 61.18837 | -150.00015 | 165 ft | 2 kts | 195° |
| 2026-05-08 00:08 | 61.18851 | -150.00012 | 165 ft | 2 kts | 172° |
| 2026-05-08 00:08 | 61.18858 | -150.00015 | 165 ft | 1 kts | 163° |
| 2026-05-08 00:08 | 61.18860 | -150.00017 | 165 ft | 0 kts | 163° |
| 2026-05-08 00:10 | 61.18811 | -149.99986 | 165 ft | 13 kts | 163° |
| 2026-05-08 00:11 | 61.18746 | -149.99976 | 165 ft | 8 kts | 205° |
| 2026-05-08 00:11 | 61.18718 | -150.00067 | 165 ft | 8 kts | 256° |
| 2026-05-08 00:11 | 61.18702 | -150.00212 | 165 ft | 11 kts | 256° |
| 2026-05-08 00:11 | 61.18669 | -150.00339 | 165 ft | 9 kts | 212° |
| 2026-05-08 00:12 | 61.18607 | -150.00328 | 165 ft | 9 kts | 161° |
| 2026-05-08 00:12 | 61.18454 | -150.00246 | 165 ft | 29 kts | 166° |
| 2026-05-08 00:12 | 61.18261 | -150.00137 | 165 ft | 27 kts | 164° |
| 2026-05-08 00:12 | 61.18087 | -150.00037 | 165 ft | 24 kts | 165° |
| 2026-05-08 00:13 | 61.17930 | -149.99947 | 165 ft | 23 kts | 165° |
| 2026-05-08 00:13 | 61.17741 | -149.99837 | 165 ft | 30 kts | 164° |
| 2026-05-08 00:13 | 61.17548 | -149.99725 | 165 ft | 27 kts | 165° |
| 2026-05-08 00:13 | 61.17372 | -149.99625 | 165 ft | 25 kts | 165° |
| 2026-05-08 00:14 | 61.17211 | -149.99532 | 165 ft | 22 kts | 165° |
| 2026-05-08 00:14 | 61.17130 | -149.99411 | 165 ft | 13 kts | 95° |
| 2026-05-08 00:14 | 61.17128 | -149.99178 | 165 ft | 21 kts | 91° |
| 2026-05-08 00:14 | 61.17125 | -149.98791 | 165 ft | 28 kts | 91° |
| 2026-05-08 00:15 | 61.17120 | -149.98406 | 165 ft | 25 kts | 91° |
| 2026-05-08 00:15 | 61.17115 | -149.98053 | 165 ft | 23 kts | 91° |
| 2026-05-08 00:15 | 61.17120 | -149.97711 | 165 ft | 24 kts | 88° |
| 2026-05-08 00:15 | 61.17122 | -149.97351 | 165 ft | 26 kts | 90° |
| 2026-05-08 00:16 | 61.17126 | -149.96954 | 165 ft | 24 kts | 89° |
| 2026-05-08 00:16 | 61.17125 | -149.96532 | 165 ft | 35 kts | 90° |
| 2026-05-08 00:16 | 61.17125 | -149.96077 | 165 ft | 22 kts | 89° |
| 2026-05-08 00:16 | 61.17126 | -149.95761 | 165 ft | 23 kts | 89° |
| 2026-05-08 00:17 | 61.17126 | -149.95386 | 165 ft | 25 kts | 90° |
| 2026-05-08 00:17 | 61.17124 | -149.95030 | 165 ft | 23 kts | 91° |
| 2026-05-08 00:17 | 61.17099 | -149.94879 | 165 ft | 0 kts | 153° |
| 2026-05-08 00:17 | 61.17094 | -149.94875 | 165 ft | 5 kts | 153° |
| 2026-05-08 00:18 | 61.17028 | -149.94847 | 165 ft | 10 kts | 178° |
| 2026-05-08 00:18 | 61.16981 | -149.94934 | 165 ft | 10 kts | 263° |
| 2026-05-08 00:18 | 61.16979 | -149.95226 | 165 ft | 47 kts | 270° |
| 2026-05-08 00:18 | 61.16978 | -149.96455 | 165 ft | 122 kts | 270° |
| 2026-05-08 00:19 | 61.16972 | -149.98691 | 191 ft | 183 kts | 269° |
| 2026-05-08 00:19 | 61.16932 | -150.01413 | 880 ft | 192 kts | 265° |
| 2026-05-08 00:19 | 61.16843 | -150.04129 | 1681 ft | 193 kts | 266° |
| 2026-05-08 00:19 | 61.16947 | -150.07031 | 1906 ft | 213 kts | 277° |
| 2026-05-08 00:20 | 61.17182 | -150.10193 | 2218 ft | 230 kts | 278° |
| 2026-05-08 00:20 | 61.17446 | -150.13538 | 2583 ft | 246 kts | 278° |
| 2026-05-08 00:20 | 61.17710 | -150.17172 | 3003 ft | 262 kts | 276° |
| 2026-05-08 00:20 | 61.17954 | -150.20886 | 3738 ft | 264 kts | 275° |
| 2026-05-08 00:21 | 61.18196 | -150.24644 | 4459 ft | 267 kts | 275° |
| 2026-05-08 00:21 | 61.18443 | -150.28494 | 5137 ft | 271 kts | 275° |
| 2026-05-08 00:21 | 61.18688 | -150.32324 | 5832 ft | 274 kts | 275° |
| 2026-05-08 00:21 | 61.18937 | -150.36235 | 6505 ft | 277 kts | 275° |
| 2026-05-08 00:22 | 61.19185 | -150.40132 | 7221 ft | 277 kts | 275° |
| 2026-05-08 00:22 | 61.19432 | -150.44054 | 7945 ft | 278 kts | 274° |
| 2026-05-08 00:22 | 61.19682 | -150.48032 | 8703 ft | 279 kts | 274° |
| 2026-05-08 00:22 | 61.19932 | -150.52023 | 9359 ft | 281 kts | 274° |
| 2026-05-08 00:23 | 61.20179 | -150.56004 | 9984 ft | 283 kts | 274° |
| 2026-05-08 00:23 | 61.20433 | -150.60123 | 10382 ft | 294 kts | 274° |
| 2026-05-08 00:23 | 61.20694 | -150.64426 | 10534 ft | 313 kts | 274° |
| 2026-05-08 00:23 | 61.20974 | -150.69043 | 10736 ft | 331 kts | 274° |
| 2026-05-08 00:24 | 61.21263 | -150.73846 | 10965 ft | 348 kts | 274° |
| 2026-05-08 00:24 | 61.21570 | -150.78963 | 11213 ft | 365 kts | 274° |
| 2026-05-08 00:24 | 61.21887 | -150.84239 | 11696 ft | 374 kts | 274° |
| 2026-05-08 00:24 | 61.22203 | -150.89533 | 12502 ft | 375 kts | 274° |
| 2026-05-08 00:25 | 61.22523 | -150.94910 | 13313 ft | 376 kts | 274° |
| 2026-05-08 00:25 | 61.22838 | -151.00261 | 14108 ft | 379 kts | 274° |
| 2026-05-08 00:25 | 61.23154 | -151.05659 | 15006 ft | 382 kts | 274° |
| 2026-05-08 00:25 | 61.23468 | -151.11061 | 15903 ft | 384 kts | 274° |
| 2026-05-08 00:26 | 61.23788 | -151.16600 | 16805 ft | 386 kts | 274° |
| 2026-05-08 00:26 | 61.24105 | -151.22116 | 17660 ft | 389 kts | 274° |
| 2026-05-08 00:26 | 61.24421 | -151.27672 | 18479 ft | 392 kts | 274° |
| 2026-05-08 00:26 | 61.24740 | -151.33307 | 19262 ft | 396 kts | 274° |
| 2026-05-08 00:27 | 61.25056 | -151.38928 | 20057 ft | 398 kts | 274° |
| 2026-05-08 00:27 | 61.25374 | -151.44641 | 20841 ft | 401 kts | 274° |
| 2026-05-08 00:27 | 61.25688 | -151.50336 | 21573 ft | 404 kts | 274° |
| 2026-05-08 00:27 | 61.26006 | -151.56130 | 22279 ft | 407 kts | 273° |
| 2026-05-08 00:28 | 61.26324 | -151.61980 | 22938 ft | 411 kts | 273° |
| 2026-05-08 00:28 | 61.26642 | -151.67866 | 23579 ft | 414 kts | 272° |
| 2026-05-08 00:28 | 61.26957 | -151.73755 | 24279 ft | 415 kts | 272° |
| 2026-05-08 00:28 | 61.27274 | -151.79717 | 24941 ft | 418 kts | 272° |
| 2026-05-08 00:29 | 61.27590 | -151.85721 | 25452 ft | 423 kts | 272° |
| 2026-05-08 00:29 | 61.27907 | -151.91792 | 25967 ft | 427 kts | 272° |
| 2026-05-08 00:29 | 61.28223 | -151.97934 | 26528 ft | 430 kts | 272° |
| 2026-05-08 00:29 | 61.28345 | -152.04146 | 27099 ft | 432 kts | 268° |
| 2026-05-08 00:30 | 61.28388 | -152.10400 | 27603 ft | 436 kts | 268° |
| 2026-05-08 00:30 | 61.28423 | -152.16696 | 28109 ft | 441 kts | 268° |
| 2026-05-08 00:30 | 61.28456 | -152.23070 | 28639 ft | 444 kts | 268° |
| 2026-05-08 00:30 | 61.28485 | -152.29430 | 29159 ft | 448 kts | 268° |
| 2026-05-08 00:31 | 61.28512 | -152.35904 | 29706 ft | 450 kts | 268° |
| 2026-05-08 00:31 | 61.28536 | -152.42311 | 30351 ft | 448 kts | 268° |
| 2026-05-08 00:31 | 61.28556 | -152.48752 | 30945 ft | 446 kts | 269° |
| 2026-05-08 00:31 | 61.28572 | -152.55145 | 31364 ft | 446 kts | 269° |
| 2026-05-08 00:32 | 61.28586 | -152.61642 | 31646 ft | 449 kts | 269° |
| 2026-05-08 00:32 | 61.28596 | -152.68124 | 31934 ft | 452 kts | 268° |
| 2026-05-08 00:32 | 61.28604 | -152.74646 | 32303 ft | 454 kts | 269° |
| 2026-05-08 00:32 | 61.28608 | -152.81178 | 32687 ft | 455 kts | 269° |
| 2026-05-08 00:33 | 61.28610 | -152.87669 | 33035 ft | 456 kts | 269° |
| 2026-05-08 00:33 | 61.28608 | -152.94304 | 33328 ft | 459 kts | 269° |
| 2026-05-08 00:33 | 61.28602 | -153.00923 | 33685 ft | 461 kts | 269° |
| 2026-05-08 00:33 | 61.28594 | -153.07530 | 33872 ft | 463 kts | 269° |
| 2026-05-08 00:34 | 61.28567 | -153.20801 | 33851 ft | 459 kts | 269° |
| 2026-05-08 00:34 | 61.28528 | -153.34010 | 33829 ft | 460 kts | 269° |
| 2026-05-08 00:35 | 61.28476 | -153.47331 | 33844 ft | 459 kts | 269° |
| 2026-05-08 00:35 | 61.28411 | -153.60494 | 33866 ft | 458 kts | 269° |
| 2026-05-08 00:36 | 61.28332 | -153.73720 | 33950 ft | 460 kts | 268° |
| 2026-05-08 00:36 | 61.28241 | -153.86968 | 33940 ft | 461 kts | 268° |
| 2026-05-08 00:37 | 61.28137 | -154.00207 | 33876 ft | 460 kts | 268° |
| 2026-05-08 00:38 | 61.27956 | -154.20123 | 33818 ft | 459 kts | 269° |
| 2026-05-08 00:38 | 61.27820 | -154.33386 | 33846 ft | 460 kts | 269° |
| 2026-05-08 00:39 | 61.27671 | -154.46600 | 33930 ft | 461 kts | 269° |
| 2026-05-08 00:39 | 61.27508 | -154.59921 | 33960 ft | 462 kts | 269° |
| 2026-05-08 00:40 | 61.27332 | -154.73192 | 33993 ft | 462 kts | 268° |
| 2026-05-08 00:40 | 61.27144 | -154.86440 | 33991 ft | 462 kts | 268° |
| 2026-05-08 00:41 | 61.26942 | -154.99721 | 34001 ft | 461 kts | 268° |
| 2026-05-08 00:41 | 61.26727 | -155.13001 | 33996 ft | 463 kts | 268° |
| 2026-05-08 00:42 | 61.26500 | -155.26253 | 33995 ft | 461 kts | 268° |
| 2026-05-08 00:42 | 61.26260 | -155.39552 | 33973 ft | 463 kts | 268° |
| 2026-05-08 00:43 | 61.26005 | -155.52889 | 33988 ft | 463 kts | 268° |
| 2026-05-08 00:43 | 61.25738 | -155.66154 | 33989 ft | 462 kts | 268° |
| 2026-05-08 00:44 | 61.25457 | -155.79523 | 33997 ft | 464 kts | 268° |
| 2026-05-08 00:44 | 61.25165 | -155.92778 | 34004 ft | 463 kts | 268° |
| 2026-05-08 00:45 | 61.24947 | -156.06026 | 33981 ft | 462 kts | 271° |
| 2026-05-08 00:45 | 61.25063 | -156.19388 | 33998 ft | 463 kts | 272° |
| 2026-05-08 00:46 | 61.25154 | -156.32666 | 33982 ft | 463 kts | 272° |
| 2026-05-08 00:46 | 61.25219 | -156.46033 | 33999 ft | 462 kts | 272° |
| 2026-05-08 00:47 | 61.25265 | -156.59331 | 33998 ft | 463 kts | 272° |
| 2026-05-08 00:47 | 61.25294 | -156.72594 | 34005 ft | 464 kts | 271° |
| 2026-05-08 00:48 | 61.25309 | -156.85974 | 33985 ft | 463 kts | 271° |
| 2026-05-08 00:48 | 61.25309 | -156.99260 | 34010 ft | 463 kts | 271° |
| 2026-05-08 00:49 | 61.25296 | -157.12604 | 34002 ft | 463 kts | 271° |
| 2026-05-08 00:49 | 61.25269 | -157.25958 | 34009 ft | 462 kts | 271° |
| 2026-05-08 00:50 | 61.25230 | -157.39317 | 33999 ft | 463 kts | 271° |
| 2026-05-08 00:50 | 61.25177 | -157.52600 | 34015 ft | 464 kts | 271° |
| 2026-05-08 00:51 | 61.25111 | -157.65929 | 34012 ft | 462 kts | 271° |
| 2026-05-08 00:51 | 61.25032 | -157.79303 | 34019 ft | 465 kts | 271° |
| 2026-05-08 00:52 | 61.24940 | -157.92609 | 33982 ft | 463 kts | 271° |
| 2026-05-08 00:52 | 61.24834 | -158.05965 | 33962 ft | 463 kts | 271° |
| 2026-05-08 00:53 | 61.24716 | -158.19276 | 33988 ft | 463 kts | 271° |
| 2026-05-08 00:53 | 61.24585 | -158.32579 | 33983 ft | 462 kts | 271° |
| 2026-05-08 00:54 | 61.24441 | -158.45903 | 33994 ft | 464 kts | 271° |
| 2026-05-08 00:54 | 61.24284 | -158.59169 | 33985 ft | 462 kts | 272° |
| 2026-05-08 00:55 | 61.24114 | -158.72476 | 34002 ft | 463 kts | 271° |
| 2026-05-08 00:55 | 61.23930 | -158.85851 | 34033 ft | 463 kts | 271° |
| 2026-05-08 00:56 | 61.23734 | -158.99126 | 34056 ft | 461 kts | 271° |
| 2026-05-08 00:56 | 61.23526 | -159.12350 | 34052 ft | 461 kts | 272° |
| 2026-05-08 00:57 | 61.23304 | -159.25650 | 34065 ft | 462 kts | 272° |
| 2026-05-08 00:57 | 61.23070 | -159.38864 | 34074 ft | 462 kts | 272° |
| 2026-05-08 00:58 | 61.22822 | -159.52101 | 34054 ft | 461 kts | 272° |
| 2026-05-08 00:58 | 61.22562 | -159.65359 | 34025 ft | 461 kts | 271° |
| 2026-05-08 00:59 | 61.22288 | -159.78613 | 34018 ft | 461 kts | 271° |
| 2026-05-08 00:59 | 61.22002 | -159.91866 | 34050 ft | 461 kts | 272° |
| 2026-05-08 01:00 | 61.21703 | -160.05119 | 34047 ft | 461 kts | 272° |
| 2026-05-08 01:00 | 61.21392 | -160.18280 | 34043 ft | 461 kts | 272° |
| 2026-05-08 01:01 | 61.21067 | -160.31540 | 34067 ft | 463 kts | 272° |
| 2026-05-08 01:01 | 61.20729 | -160.44798 | 34054 ft | 460 kts | 272° |
| 2026-05-08 01:02 | 61.20378 | -160.58055 | 34061 ft | 463 kts | 272° |
| 2026-05-08 01:02 | 61.20013 | -160.71292 | 34071 ft | 463 kts | 271° |
| 2026-05-08 01:03 | 61.19634 | -160.84604 | 34063 ft | 462 kts | 271° |
| 2026-05-08 01:03 | 61.19247 | -160.97766 | 34067 ft | 463 kts | 271° |
| 2026-05-08 01:04 | 61.18841 | -161.11095 | 34076 ft | 464 kts | 271° |
| 2026-05-08 01:04 | 61.18425 | -161.24332 | 34073 ft | 463 kts | 271° |
| 2026-05-08 01:05 | 61.17994 | -161.37642 | 34086 ft | 465 kts | 271° |
| 2026-05-08 01:05 | 61.17551 | -161.50897 | 34104 ft | 466 kts | 271° |
| 2026-05-08 01:06 | 61.17092 | -161.64226 | 34088 ft | 466 kts | 271° |
| 2026-05-08 01:06 | 61.16619 | -161.77617 | 34083 ft | 467 kts | 271° |
| 2026-05-08 01:07 | 61.16133 | -161.90977 | 34107 ft | 468 kts | 270° |
| 2026-05-08 01:07 | 61.15634 | -162.04300 | 34106 ft | 466 kts | 271° |
| 2026-05-08 01:08 | 61.15121 | -162.17686 | 34105 ft | 469 kts | 271° |
| 2026-05-08 01:08 | 61.14592 | -162.31090 | 34124 ft | 468 kts | 270° |
| 2026-05-08 01:09 | 61.14054 | -162.44443 | 34112 ft | 469 kts | 270° |
| 2026-05-08 01:09 | 61.13498 | -162.57869 | 34140 ft | 470 kts | 270° |
| 2026-05-08 01:10 | 61.12931 | -162.71237 | 34124 ft | 469 kts | 270° |
| 2026-05-08 01:10 | 61.12349 | -162.84677 | 34111 ft | 470 kts | 270° |
| 2026-05-08 01:11 | 61.11632 | -162.98100 | 34114 ft | 476 kts | 263° |
| 2026-05-08 01:11 | 61.09974 | -163.11374 | 34117 ft | 479 kts | 260° |
| 2026-05-08 01:12 | 61.08192 | -163.24564 | 34127 ft | 481 kts | 259° |
| 2026-05-08 01:12 | 61.06368 | -163.37750 | 34119 ft | 481 kts | 259° |
| 2026-05-08 01:13 | 61.04509 | -163.50990 | 34131 ft | 482 kts | 259° |
| 2026-05-08 01:13 | 61.02635 | -163.64166 | 34129 ft | 482 kts | 259° |
| 2026-05-08 01:14 | 61.00738 | -163.77379 | 34138 ft | 484 kts | 258° |
| 2026-05-08 01:14 | 60.98812 | -163.90663 | 34132 ft | 484 kts | 258° |
| 2026-05-08 01:15 | 60.96882 | -164.03871 | 34128 ft | 486 kts | 258° |
| 2026-05-08 01:15 | 60.94924 | -164.17152 | 34134 ft | 486 kts | 258° |
| 2026-05-08 01:16 | 60.92962 | -164.30365 | 34143 ft | 487 kts | 258° |
| 2026-05-08 01:16 | 60.90972 | -164.43652 | 34133 ft | 487 kts | 258° |
| 2026-05-08 01:17 | 60.88977 | -164.56868 | 34117 ft | 489 kts | 258° |
| 2026-05-08 01:17 | 60.86957 | -164.70149 | 34100 ft | 488 kts | 257° |
| 2026-05-08 01:18 | 60.84918 | -164.83455 | 34102 ft | 491 kts | 257° |
| 2026-05-08 01:18 | 60.82871 | -164.96704 | 34110 ft | 490 kts | 257° |
| 2026-05-08 01:19 | 60.80804 | -165.09984 | 34131 ft | 491 kts | 257° |
| 2026-05-08 01:19 | 60.78725 | -165.23227 | 34133 ft | 491 kts | 257° |
| 2026-05-08 01:20 | 60.76636 | -165.36444 | 34132 ft | 492 kts | 257° |
| 2026-05-08 01:20 | 60.74522 | -165.49715 | 34132 ft | 491 kts | 257° |
| 2026-05-08 01:21 | 60.72402 | -165.62923 | 34127 ft | 492 kts | 257° |
| 2026-05-08 01:21 | 60.70257 | -165.76193 | 34138 ft | 494 kts | 256° |
| 2026-05-08 01:22 | 60.68104 | -165.89412 | 34124 ft | 493 kts | 256° |
| 2026-05-08 01:22 | 60.65933 | -166.02644 | 34132 ft | 494 kts | 256° |
| 2026-05-08 01:23 | 60.63741 | -166.15900 | 34130 ft | 495 kts | 256° |
| 2026-05-08 01:23 | 60.61547 | -166.29080 | 34123 ft | 494 kts | 256° |
| 2026-05-08 01:24 | 60.59336 | -166.42258 | 34138 ft | 494 kts | 256° |
| 2026-05-08 01:24 | 60.57109 | -166.55441 | 34135 ft | 494 kts | 256° |
| 2026-05-08 01:25 | 60.54875 | -166.68571 | 34147 ft | 494 kts | 255° |
| 2026-05-08 01:25 | 60.52630 | -166.81674 | 34138 ft | 495 kts | 255° |
| 2026-05-08 01:26 | 60.50363 | -166.94807 | 34138 ft | 494 kts | 255° |
| 2026-05-08 01:26 | 60.48081 | -167.07938 | 34144 ft | 495 kts | 255° |
| 2026-05-08 01:27 | 60.45795 | -167.20998 | 34137 ft | 495 kts | 255° |
| 2026-05-08 01:27 | 60.43491 | -167.34065 | 34145 ft | 494 kts | 254° |
| 2026-05-08 01:28 | 60.41170 | -167.47142 | 34147 ft | 494 kts | 254° |
| 2026-05-08 01:28 | 60.38847 | -167.60138 | 34154 ft | 495 kts | 254° |
| 2026-05-08 01:29 | 60.36501 | -167.73178 | 34159 ft | 494 kts | 253° |
| 2026-05-08 01:29 | 60.34148 | -167.86166 | 34157 ft | 495 kts | 253° |
| 2026-05-08 01:30 | 60.31781 | -167.99139 | 34160 ft | 495 kts | 253° |
| 2026-05-08 01:30 | 60.29436 | -168.12041 | 34161 ft | 494 kts | 253° |
| 2026-05-08 01:31 | 60.27096 | -168.25073 | 34160 ft | 494 kts | 253° |
| 2026-05-08 01:31 | 60.24760 | -168.37979 | 34160 ft | 495 kts | 253° |
| 2026-05-08 01:32 | 60.22398 | -168.50934 | 34158 ft | 494 kts | 253° |
| 2026-05-08 01:32 | 60.20027 | -168.63844 | 34159 ft | 494 kts | 253° |
| 2026-05-08 01:33 | 60.17641 | -168.76744 | 34157 ft | 495 kts | 252° |
| 2026-05-08 01:33 | 60.15241 | -168.89642 | 34160 ft | 495 kts | 252° |
| 2026-05-08 01:34 | 60.12828 | -169.02515 | 34155 ft | 494 kts | 252° |
| 2026-05-08 01:34 | 60.10414 | -169.15309 | 34154 ft | 495 kts | 252° |
| 2026-05-08 01:35 | 60.07977 | -169.28139 | 34159 ft | 495 kts | 252° |
| 2026-05-08 01:35 | 60.05512 | -169.41032 | 34151 ft | 496 kts | 251° |
| 2026-05-08 01:36 | 60.03054 | -169.53807 | 34155 ft | 496 kts | 251° |
| 2026-05-08 01:36 | 60.00557 | -169.66695 | 34152 ft | 496 kts | 250° |
| 2026-05-08 01:37 | 59.98061 | -169.79498 | 34150 ft | 497 kts | 250° |
| 2026-05-08 01:37 | 59.95558 | -169.92255 | 34147 ft | 498 kts | 250° |
| 2026-05-08 01:38 | 59.93034 | -170.05035 | 34150 ft | 497 kts | 250° |
| 2026-05-08 01:38 | 59.90499 | -170.17786 | 34152 ft | 498 kts | 250° |
| 2026-05-08 01:39 | 59.87936 | -170.30603 | 34147 ft | 498 kts | 250° |
| 2026-05-08 01:39 | 59.85375 | -170.43326 | 34148 ft | 498 kts | 250° |
| 2026-05-08 01:40 | 59.82805 | -170.56010 | 34147 ft | 498 kts | 250° |
| 2026-05-08 01:40 | 59.80207 | -170.68755 | 34145 ft | 499 kts | 249° |
| 2026-05-08 01:41 | 59.77608 | -170.81426 | 34142 ft | 498 kts | 249° |
| 2026-05-08 01:41 | 59.74984 | -170.94135 | 34147 ft | 498 kts | 249° |
| 2026-05-08 01:42 | 59.72371 | -171.06717 | 34142 ft | 498 kts | 249° |
| 2026-05-08 01:42 | 59.69738 | -171.19312 | 34144 ft | 498 kts | 249° |
| 2026-05-08 01:43 | 59.67086 | -171.31923 | 34142 ft | 498 kts | 249° |
| 2026-05-08 01:43 | 59.64413 | -171.44557 | 34135 ft | 499 kts | 249° |
| 2026-05-08 01:44 | 59.61737 | -171.57130 | 34142 ft | 498 kts | 249° |
| 2026-05-08 01:44 | 59.59044 | -171.69702 | 34138 ft | 499 kts | 248° |
| 2026-05-08 01:45 | 59.56351 | -171.82201 | 34142 ft | 499 kts | 248° |
| 2026-05-08 01:45 | 59.53661 | -171.94739 | 34144 ft | 499 kts | 249° |
| 2026-05-08 01:46 | 59.51105 | -172.07359 | 34142 ft | 499 kts | 250° |
| 2026-05-08 01:46 | 59.48521 | -172.20036 | 34147 ft | 499 kts | 249° |
| 2026-05-08 01:47 | 59.45932 | -172.32642 | 34138 ft | 499 kts | 249° |
| 2026-05-08 01:47 | 59.43335 | -172.45187 | 34145 ft | 499 kts | 249° |
| 2026-05-08 01:48 | 59.39415 | -172.63972 | 34146 ft | 499 kts | 249° |
| 2026-05-08 01:48 | 59.36795 | -172.76421 | 34140 ft | 499 kts | 249° |
| 2026-05-08 01:49 | 59.34996 | -172.84929 | 34145 ft | 499 kts | 249° |
| 2026-05-08 01:49 | 59.32315 | -172.97539 | 34136 ft | 500 kts | 248° |
| 2026-05-08 01:50 | 59.29639 | -173.10049 | 34143 ft | 499 kts | 248° |
| 2026-05-08 01:50 | 59.26975 | -173.22430 | 34138 ft | 500 kts | 248° |
| 2026-05-08 01:51 | 59.24271 | -173.34918 | 34134 ft | 500 kts | 248° |
| 2026-05-08 01:51 | 59.21564 | -173.47350 | 34136 ft | 500 kts | 248° |
| 2026-05-08 01:52 | 59.18844 | -173.59763 | 34141 ft | 499 kts | 248° |
| 2026-05-08 01:52 | 59.16108 | -173.72174 | 34136 ft | 500 kts | 247° |
| 2026-05-08 01:53 | 59.13365 | -173.84547 | 34144 ft | 500 kts | 247° |
| 2026-05-08 01:53 | 59.10606 | -173.96916 | 34142 ft | 500 kts | 247° |
| 2026-05-08 01:54 | 59.07842 | -174.09236 | 34148 ft | 500 kts | 247° |
| 2026-05-08 01:54 | 59.05048 | -174.21620 | 34127 ft | 500 kts | 247° |
| 2026-05-08 01:55 | 59.02357 | -174.33977 | 34133 ft | 500 kts | 248° |
| 2026-05-08 01:55 | 58.99660 | -174.46382 | 34139 ft | 500 kts | 248° |
| 2026-05-08 01:56 | 58.96948 | -174.58765 | 34134 ft | 500 kts | 248° |
| 2026-05-08 01:56 | 58.94232 | -174.71078 | 34133 ft | 500 kts | 246° |
| 2026-05-08 01:57 | 58.91497 | -174.83405 | 34132 ft | 499 kts | 246° |
| 2026-05-08 01:57 | 58.88759 | -174.95665 | 34132 ft | 499 kts | 246° |
| 2026-05-08 01:58 | 58.86002 | -175.07935 | 34129 ft | 499 kts | 246° |
| 2026-05-08 01:58 | 58.83231 | -175.20201 | 34133 ft | 499 kts | 246° |
| 2026-05-08 01:59 | 58.80461 | -175.32390 | 34124 ft | 498 kts | 246° |
| 2026-05-08 01:59 | 58.77667 | -175.44611 | 34128 ft | 499 kts | 246° |
| 2026-05-08 02:00 | 58.74877 | -175.56747 | 34124 ft | 499 kts | 246° |
| 2026-05-08 02:00 | 58.72068 | -175.68898 | 34121 ft | 498 kts | 245° |
| 2026-05-08 02:01 | 58.69248 | -175.81024 | 34120 ft | 498 kts | 245° |
| 2026-05-08 02:01 | 58.66414 | -175.93146 | 34117 ft | 499 kts | 245° |
| 2026-05-08 02:02 | 58.63567 | -176.05252 | 34106 ft | 498 kts | 245° |
| 2026-05-08 02:02 | 58.60729 | -176.17255 | 34104 ft | 498 kts | 245° |
| 2026-05-08 02:03 | 58.57864 | -176.29300 | 34102 ft | 498 kts | 245° |
| 2026-05-08 02:03 | 58.54996 | -176.41295 | 34101 ft | 498 kts | 245° |
| 2026-05-08 02:04 | 58.52110 | -176.53297 | 34103 ft | 496 kts | 245° |
| 2026-05-08 02:04 | 58.49231 | -176.65207 | 34101 ft | 497 kts | 244° |
| 2026-05-08 02:05 | 58.46331 | -176.77135 | 34095 ft | 496 kts | 244° |
| 2026-05-08 02:05 | 58.43418 | -176.89049 | 34093 ft | 495 kts | 244° |
| 2026-05-08 02:06 | 58.40510 | -177.00884 | 34086 ft | 495 kts | 244° |
| 2026-05-08 02:06 | 58.37637 | -177.12514 | 34094 ft | 495 kts | 244° |
| 2026-05-08 02:07 | 58.34719 | -177.24322 | 34083 ft | 495 kts | 244° |
| 2026-05-08 02:07 | 58.31771 | -177.36189 | 34083 ft | 495 kts | 244° |
| 2026-05-08 02:08 | 58.28824 | -177.47990 | 34081 ft | 494 kts | 244° |
| 2026-05-08 02:08 | 58.25889 | -177.59672 | 34079 ft | 494 kts | 244° |
| 2026-05-08 02:09 | 58.22926 | -177.71408 | 34082 ft | 493 kts | 243° |
| 2026-05-08 02:09 | 58.19958 | -177.83096 | 34079 ft | 492 kts | 243° |
| 2026-05-08 02:10 | 58.16996 | -177.94704 | 34078 ft | 491 kts | 243° |
| 2026-05-08 02:10 | 58.14012 | -178.06339 | 34076 ft | 491 kts | 242° |
| 2026-05-08 02:11 | 58.11025 | -178.17921 | 34072 ft | 491 kts | 242° |
| 2026-05-08 02:11 | 58.08022 | -178.29507 | 34066 ft | 491 kts | 242° |
| 2026-05-08 02:12 | 58.05020 | -178.41032 | 34061 ft | 491 kts | 242° |
| 2026-05-08 02:12 | 58.02004 | -178.52548 | 34062 ft | 492 kts | 242° |
| 2026-05-08 02:13 | 57.98960 | -178.64111 | 34058 ft | 491 kts | 242° |
| 2026-05-08 02:13 | 57.95923 | -178.75594 | 34048 ft | 491 kts | 240° |
| 2026-05-08 02:14 | 57.92876 | -178.87048 | 34045 ft | 492 kts | 240° |
| 2026-05-08 02:14 | 57.89809 | -178.98523 | 34043 ft | 491 kts | 240° |
| 2026-05-08 02:15 | 57.86745 | -179.09929 | 34047 ft | 491 kts | 240° |
| 2026-05-08 02:15 | 57.83671 | -179.21317 | 34044 ft | 491 kts | 240° |
| 2026-05-08 02:16 | 57.80574 | -179.32730 | 34040 ft | 492 kts | 240° |
| 2026-05-08 02:16 | 57.77459 | -179.44153 | 34046 ft | 491 kts | 240° |
| 2026-05-08 02:17 | 57.74342 | -179.55522 | 34035 ft | 491 kts | 238° |
| 2026-05-08 02:17 | 57.71228 | -179.66824 | 34036 ft | 492 kts | 238° |
| 2026-05-08 02:18 | 57.68090 | -179.78162 | 34036 ft | 490 kts | 238° |
| 2026-05-08 02:18 | 57.64941 | -179.89479 | 34034 ft | 491 kts | 238° |
| 2026-05-08 02:19 | 57.61780 | 179.99216 | 34034 ft | 491 kts | 238° |
| 2026-05-08 02:19 | 57.58612 | 179.87939 | 34032 ft | 490 kts | 238° |
| 2026-05-08 02:20 | 57.55454 | 179.76753 | 34031 ft | 491 kts | 238° |
| 2026-05-08 02:20 | 57.52251 | 179.65465 | 34023 ft | 490 kts | 238° |
| 2026-05-08 02:21 | 57.49083 | 179.54352 | 34018 ft | 490 kts | 237° |
| 2026-05-08 02:21 | 57.45873 | 179.43149 | 34023 ft | 490 kts | 237° |
| 2026-05-08 02:22 | 57.42662 | 179.31993 | 34012 ft | 491 kts | 236° |
| 2026-05-08 02:22 | 57.39456 | 179.20909 | 34008 ft | 489 kts | 236° |
| 2026-05-08 02:23 | 57.36213 | 179.09752 | 34001 ft | 489 kts | 236° |
| 2026-05-08 02:23 | 57.32978 | 178.98674 | 34002 ft | 488 kts | 236° |
| 2026-05-08 02:24 | 57.29747 | 178.87665 | 33995 ft | 489 kts | 235° |
| 2026-05-08 02:24 | 57.26510 | 178.76682 | 33994 ft | 487 kts | 235° |
| 2026-05-08 02:25 | 57.23244 | 178.65662 | 33990 ft | 486 kts | 235° |
| 2026-05-08 02:25 | 57.20003 | 178.54770 | 33989 ft | 488 kts | 235° |
| 2026-05-08 02:26 | 57.16723 | 178.43800 | 33989 ft | 488 kts | 235° |
| 2026-05-08 02:26 | 57.13449 | 178.32903 | 33978 ft | 486 kts | 234° |
| 2026-05-08 02:27 | 57.10164 | 178.22020 | 33969 ft | 485 kts | 234° |
| 2026-05-08 02:27 | 57.06873 | 178.11165 | 33985 ft | 486 kts | 233° |
| 2026-05-08 02:28 | 57.03561 | 178.00293 | 33968 ft | 486 kts | 234° |
| 2026-05-08 02:28 | 57.00274 | 177.89549 | 33959 ft | 485 kts | 233° |
| 2026-05-08 02:29 | 56.96928 | 177.78673 | 33954 ft | 487 kts | 233° |
| 2026-05-08 02:29 | 56.93608 | 177.67920 | 33952 ft | 486 kts | 233° |
| 2026-05-08 02:30 | 56.90282 | 177.57198 | 33946 ft | 485 kts | 233° |
| 2026-05-08 02:30 | 56.86910 | 177.46381 | 33958 ft | 489 kts | 233° |
| 2026-05-08 02:31 | 56.83572 | 177.35718 | 33949 ft | 485 kts | 233° |
| 2026-05-08 02:31 | 56.80191 | 177.25009 | 33944 ft | 486 kts | 232° |
| 2026-05-08 02:32 | 56.76815 | 177.14380 | 33951 ft | 486 kts | 231° |
| 2026-05-08 02:32 | 56.73438 | 177.03793 | 33937 ft | 483 kts | 231° |
| 2026-05-08 02:33 | 56.70032 | 176.93172 | 33931 ft | 487 kts | 231° |
| 2026-05-08 02:33 | 56.66642 | 176.82631 | 33927 ft | 483 kts | 231° |
| 2026-05-08 02:34 | 56.63219 | 176.72049 | 33922 ft | 488 kts | 231° |
| 2026-05-08 02:34 | 56.59802 | 176.61519 | 33930 ft | 483 kts | 231° |
| 2026-05-08 02:35 | 56.56353 | 176.50944 | 33913 ft | 486 kts | 231° |
| 2026-05-08 02:35 | 56.52904 | 176.40419 | 33920 ft | 488 kts | 231° |
| 2026-05-08 02:36 | 56.49466 | 176.29965 | 33918 ft | 486 kts | 231° |
| 2026-05-08 02:36 | 56.46015 | 176.19519 | 33896 ft | 485 kts | 231° |
| 2026-05-08 02:37 | 56.42538 | 176.09049 | 33923 ft | 485 kts | 231° |
| 2026-05-08 02:37 | 56.39074 | 175.98654 | 33906 ft | 488 kts | 231° |
| 2026-05-08 02:38 | 56.35595 | 175.88258 | 33910 ft | 486 kts | 231° |
| 2026-05-08 02:38 | 56.32122 | 175.77930 | 33913 ft | 485 kts | 231° |
| 2026-05-08 02:39 | 56.28617 | 175.67551 | 33918 ft | 487 kts | 231° |
| 2026-05-08 02:39 | 56.25107 | 175.57202 | 33904 ft | 486 kts | 232° |
| 2026-05-08 02:40 | 56.21586 | 175.46866 | 33929 ft | 489 kts | 232° |
| 2026-05-08 02:40 | 56.18069 | 175.36580 | 33910 ft | 486 kts | 232° |
| 2026-05-08 02:41 | 56.14538 | 175.26300 | 33919 ft | 485 kts | 231° |
| 2026-05-08 02:41 | 56.10985 | 175.16005 | 33913 ft | 488 kts | 232° |
| 2026-05-08 02:42 | 56.07426 | 175.05728 | 33907 ft | 486 kts | 232° |
| 2026-05-08 02:42 | 56.03866 | 174.95499 | 33898 ft | 490 kts | 232° |
| 2026-05-08 02:43 | 56.00274 | 174.85213 | 33905 ft | 487 kts | 232° |
| 2026-05-08 02:43 | 55.96692 | 174.75006 | 33898 ft | 488 kts | 233° |
| 2026-05-08 02:44 | 55.93089 | 174.64781 | 33900 ft | 490 kts | 233° |
| 2026-05-08 02:44 | 55.89477 | 174.54572 | 33908 ft | 489 kts | 233° |
| 2026-05-08 02:45 | 55.85850 | 174.44365 | 33903 ft | 489 kts | 233° |
| 2026-05-08 02:45 | 55.82228 | 174.34213 | 33889 ft | 490 kts | 233° |
| 2026-05-08 02:46 | 55.78587 | 174.24051 | 33889 ft | 489 kts | 233° |
| 2026-05-08 02:46 | 55.74923 | 174.13866 | 33901 ft | 489 kts | 233° |
| 2026-05-08 02:47 | 55.71272 | 174.03761 | 33885 ft | 489 kts | 233° |
| 2026-05-08 02:47 | 55.67616 | 173.93681 | 33882 ft | 489 kts | 233° |
| 2026-05-08 02:48 | 55.63937 | 173.83585 | 33883 ft | 489 kts | 233° |
| 2026-05-08 02:48 | 55.60268 | 173.73555 | 33877 ft | 488 kts | 233° |
| 2026-05-08 02:49 | 55.56582 | 173.63518 | 33881 ft | 488 kts | 233° |
| 2026-05-08 02:49 | 55.52890 | 173.53510 | 33859 ft | 489 kts | 234° |
| 2026-05-08 02:50 | 55.49182 | 173.43495 | 33855 ft | 488 kts | 234° |
| 2026-05-08 02:50 | 55.45482 | 173.33543 | 33858 ft | 488 kts | 233° |
| 2026-05-08 02:51 | 55.41787 | 173.23644 | 33859 ft | 487 kts | 233° |
| 2026-05-08 02:51 | 55.38059 | 173.13698 | 33866 ft | 487 kts | 233° |
| 2026-05-08 02:52 | 55.34357 | 173.03863 | 33865 ft | 486 kts | 233° |
| 2026-05-08 02:52 | 55.30628 | 172.93996 | 33851 ft | 486 kts | 233° |
| 2026-05-08 02:53 | 55.26889 | 172.84142 | 33857 ft | 487 kts | 233° |
| 2026-05-08 02:53 | 55.23150 | 172.74322 | 33857 ft | 486 kts | 233° |
| 2026-05-08 02:54 | 55.19416 | 172.64560 | 33842 ft | 485 kts | 234° |
| 2026-05-08 02:54 | 55.15673 | 172.54813 | 33849 ft | 485 kts | 234° |
| 2026-05-08 02:55 | 55.10038 | 172.40210 | 33844 ft | 485 kts | 234° |
| 2026-05-08 02:56 | 55.06281 | 172.30519 | 33835 ft | 484 kts | 233° |
| 2026-05-08 02:56 | 55.02506 | 172.20821 | 33839 ft | 484 kts | 234° |
| 2026-05-08 02:57 | 54.98743 | 172.11191 | 33839 ft | 484 kts | 234° |
| 2026-05-08 02:57 | 54.94951 | 172.01527 | 33834 ft | 485 kts | 234° |
| 2026-05-08 02:58 | 54.90866 | 171.92274 | 33834 ft | 483 kts | 230° |
| 2026-05-08 02:58 | 54.86654 | 171.83311 | 33831 ft | 482 kts | 229° |
| 2026-05-08 02:59 | 54.82429 | 171.74374 | 33835 ft | 482 kts | 229° |
| 2026-05-08 02:59 | 54.78171 | 171.65411 | 33840 ft | 481 kts | 230° |
| 2026-05-08 03:00 | 54.73936 | 171.56534 | 33842 ft | 480 kts | 230° |
| 2026-05-08 03:00 | 54.69669 | 171.47627 | 33828 ft | 481 kts | 230° |
| 2026-05-08 03:01 | 54.65416 | 171.38780 | 33844 ft | 481 kts | 230° |
| 2026-05-08 03:01 | 54.61177 | 171.29997 | 33840 ft | 480 kts | 229° |
| 2026-05-08 03:02 | 54.56899 | 171.21162 | 33833 ft | 480 kts | 229° |
| 2026-05-08 03:02 | 54.52642 | 171.12404 | 33831 ft | 480 kts | 229° |
| 2026-05-08 03:03 | 54.48370 | 171.03647 | 33829 ft | 479 kts | 229° |
| 2026-05-08 03:03 | 54.44105 | 170.94937 | 33835 ft | 479 kts | 229° |
| 2026-05-08 03:04 | 54.39818 | 170.86209 | 33828 ft | 479 kts | 229° |
| 2026-05-08 03:04 | 54.35533 | 170.77521 | 33831 ft | 479 kts | 229° |
| 2026-05-08 03:05 | 54.31251 | 170.68866 | 33832 ft | 478 kts | 229° |
| 2026-05-08 03:05 | 54.26945 | 170.60193 | 33825 ft | 479 kts | 230° |
| 2026-05-08 03:06 | 54.22644 | 170.51564 | 33829 ft | 478 kts | 230° |
| 2026-05-08 03:06 | 54.18343 | 170.42963 | 33832 ft | 478 kts | 230° |
| 2026-05-08 03:07 | 54.14025 | 170.34358 | 33832 ft | 478 kts | 229° |
| 2026-05-08 03:07 | 54.09695 | 170.25761 | 33835 ft | 478 kts | 229° |
| 2026-05-08 03:08 | 54.05390 | 170.17242 | 33837 ft | 477 kts | 229° |
| 2026-05-08 03:08 | 54.01084 | 170.08749 | 33836 ft | 477 kts | 229° |
| 2026-05-08 03:09 | 53.96753 | 170.00240 | 33834 ft | 476 kts | 229° |
| 2026-05-08 03:09 | 53.92455 | 169.91821 | 33830 ft | 475 kts | 230° |
| 2026-05-08 03:10 | 53.88139 | 169.83398 | 33832 ft | 475 kts | 230° |
| 2026-05-08 03:10 | 53.83808 | 169.74976 | 33833 ft | 476 kts | 230° |
| 2026-05-08 03:11 | 53.79492 | 169.66609 | 33831 ft | 473 kts | 230° |
| 2026-05-08 03:11 | 53.75166 | 169.58254 | 33825 ft | 472 kts | 230° |
| 2026-05-08 03:12 | 53.70842 | 169.49928 | 33827 ft | 472 kts | 230° |
| 2026-05-08 03:12 | 53.66549 | 169.41690 | 33821 ft | 472 kts | 230° |
| 2026-05-08 03:13 | 53.62374 | 169.33188 | 33824 ft | 470 kts | 237° |
| 2026-05-08 03:13 | 53.59221 | 169.23647 | 33827 ft | 469 kts | 243° |
| 2026-05-08 03:14 | 53.56160 | 169.13954 | 33822 ft | 470 kts | 242° |
| 2026-05-08 03:14 | 53.53104 | 169.04375 | 33821 ft | 469 kts | 242° |
| 2026-05-08 03:15 | 53.50021 | 168.94781 | 33815 ft | 467 kts | 242° |
| 2026-05-08 03:15 | 53.46935 | 168.85231 | 33817 ft | 466 kts | 242° |
| 2026-05-08 03:16 | 53.43853 | 168.75740 | 33817 ft | 466 kts | 243° |
| 2026-05-08 03:16 | 53.40749 | 168.66226 | 33814 ft | 465 kts | 243° |
| 2026-05-08 03:17 | 53.37653 | 168.56775 | 33810 ft | 465 kts | 243° |
| 2026-05-08 03:17 | 53.34543 | 168.47317 | 33812 ft | 465 kts | 243° |
| 2026-05-08 03:18 | 53.31437 | 168.37909 | 33809 ft | 465 kts | 243° |
| 2026-05-08 03:18 | 53.28316 | 168.28510 | 33814 ft | 464 kts | 242° |
| 2026-05-08 03:19 | 53.25176 | 168.19102 | 33812 ft | 465 kts | 242° |
| 2026-05-08 03:19 | 53.22048 | 168.09770 | 33813 ft | 463 kts | 242° |
| 2026-05-08 03:20 | 53.18907 | 168.00435 | 33810 ft | 464 kts | 242° |
| 2026-05-08 03:20 | 53.15747 | 167.91077 | 33808 ft | 463 kts | 242° |
| 2026-05-08 03:21 | 53.12596 | 167.81781 | 33808 ft | 463 kts | 242° |
| 2026-05-08 03:21 | 53.09446 | 167.72522 | 33807 ft | 461 kts | 242° |
| 2026-05-08 03:22 | 53.06283 | 167.63260 | 33806 ft | 462 kts | 242° |
| 2026-05-08 03:22 | 53.03132 | 167.54068 | 33807 ft | 461 kts | 243° |
| 2026-05-08 03:23 | 52.99956 | 167.44835 | 33801 ft | 460 kts | 243° |
| 2026-05-08 03:23 | 52.96781 | 167.35643 | 33800 ft | 460 kts | 243° |
| 2026-05-08 03:24 | 52.93608 | 167.26489 | 33807 ft | 459 kts | 242° |
| 2026-05-08 03:24 | 52.90461 | 167.17441 | 33805 ft | 457 kts | 242° |
| 2026-05-08 03:25 | 52.87266 | 167.08289 | 33800 ft | 458 kts | 242° |
| 2026-05-08 03:25 | 52.84145 | 166.99382 | 33793 ft | 457 kts | 242° |
| 2026-05-08 03:26 | 52.80959 | 166.90324 | 33795 ft | 456 kts | 242° |
| 2026-05-08 03:26 | 52.77782 | 166.81323 | 33797 ft | 454 kts | 242° |
| 2026-05-08 03:27 | 52.74598 | 166.72333 | 33796 ft | 455 kts | 242° |
| 2026-05-08 03:27 | 52.71421 | 166.63397 | 33792 ft | 454 kts | 242° |
| 2026-05-08 03:28 | 52.68223 | 166.54434 | 33789 ft | 453 kts | 242° |
| 2026-05-08 03:28 | 52.65030 | 166.45517 | 33792 ft | 452 kts | 243° |
| 2026-05-08 03:29 | 52.61844 | 166.36650 | 33788 ft | 452 kts | 243° |
| 2026-05-08 03:29 | 52.58658 | 166.27814 | 33800 ft | 452 kts | 242° |
| 2026-05-08 03:30 | 52.53863 | 166.14575 | 33794 ft | 450 kts | 242° |
| 2026-05-08 03:31 | 52.47466 | 165.97020 | 33795 ft | 449 kts | 242° |
| 2026-05-08 03:32 | 52.42658 | 165.83905 | 33798 ft | 448 kts | 242° |
| 2026-05-08 03:32 | 52.39449 | 165.75191 | 33794 ft | 448 kts | 242° |
| 2026-05-08 03:33 | 52.36251 | 165.66533 | 33795 ft | 448 kts | 242° |
| 2026-05-08 03:33 | 52.33033 | 165.57854 | 33794 ft | 446 kts | 242° |
| 2026-05-08 03:34 | 52.29807 | 165.49184 | 33792 ft | 446 kts | 243° |
| 2026-05-08 03:34 | 52.26594 | 165.40576 | 33795 ft | 445 kts | 243° |
| 2026-05-08 03:35 | 52.23394 | 165.32031 | 33796 ft | 444 kts | 242° |
| 2026-05-08 03:35 | 52.20182 | 165.23486 | 33799 ft | 443 kts | 242° |
| 2026-05-08 03:36 | 52.16960 | 165.14941 | 33800 ft | 442 kts | 242° |
| 2026-05-08 03:36 | 52.13749 | 165.06455 | 33796 ft | 442 kts | 242° |
| 2026-05-08 03:37 | 52.10525 | 164.97961 | 33791 ft | 442 kts | 242° |
| 2026-05-08 03:37 | 52.07314 | 164.89534 | 33797 ft | 441 kts | 242° |
| 2026-05-08 03:38 | 52.04089 | 164.81096 | 33793 ft | 439 kts | 242° |
| 2026-05-08 03:38 | 52.00881 | 164.72728 | 33795 ft | 437 kts | 242° |
| 2026-05-08 03:39 | 51.97652 | 164.64334 | 33808 ft | 438 kts | 243° |
| 2026-05-08 03:39 | 51.94451 | 164.56039 | 33782 ft | 438 kts | 242° |
| 2026-05-08 03:40 | 51.91229 | 164.47717 | 33791 ft | 435 kts | 242° |
| 2026-05-08 03:40 | 51.88023 | 164.39465 | 33792 ft | 434 kts | 243° |
| 2026-05-08 03:41 | 51.84617 | 164.30724 | 33808 ft | 438 kts | 242° |
| 2026-05-08 03:41 | 51.81406 | 164.22516 | 33804 ft | 435 kts | 242° |
| 2026-05-08 03:42 | 51.78172 | 164.14273 | 33815 ft | 430 kts | 242° |
| 2026-05-08 03:42 | 51.74970 | 164.06131 | 33815 ft | 434 kts | 242° |
| 2026-05-08 03:43 | 51.71762 | 163.98007 | 33811 ft | 432 kts | 242° |
| 2026-05-08 03:43 | 51.68547 | 163.89890 | 33802 ft | 433 kts | 242° |
| 2026-05-08 03:44 | 51.65324 | 163.81778 | 33813 ft | 430 kts | 242° |
| 2026-05-08 03:44 | 51.62114 | 163.73724 | 33805 ft | 430 kts | 242° |
| 2026-05-08 03:45 | 51.58897 | 163.65675 | 33800 ft | 430 kts | 242° |
| 2026-05-08 03:45 | 51.55671 | 163.57634 | 33801 ft | 425 kts | 243° |
| 2026-05-08 03:46 | 51.52471 | 163.49675 | 33819 ft | 426 kts | 243° |
| 2026-05-08 03:46 | 51.49274 | 163.41753 | 33790 ft | 425 kts | 243° |
| 2026-05-08 03:47 | 51.46063 | 163.33817 | 33801 ft | 424 kts | 242° |
| 2026-05-08 03:47 | 51.42867 | 163.25943 | 33817 ft | 425 kts | 242° |
| 2026-05-08 03:48 | 51.39657 | 163.18062 | 33818 ft | 422 kts | 242° |
| 2026-05-08 03:48 | 51.36468 | 163.10252 | 33827 ft | 421 kts | 242° |
| 2026-05-08 03:49 | 51.33261 | 163.02423 | 33814 ft | 423 kts | 242° |
| 2026-05-08 03:49 | 51.30061 | 162.94636 | 33818 ft | 420 kts | 242° |
| 2026-05-08 03:50 | 51.26875 | 162.86906 | 33801 ft | 417 kts | 243° |
| 2026-05-08 03:50 | 51.23667 | 162.79146 | 33805 ft | 418 kts | 243° |
| 2026-05-08 03:51 | 51.20484 | 162.71468 | 33803 ft | 417 kts | 243° |
| 2026-05-08 03:51 | 51.17295 | 162.63800 | 33808 ft | 413 kts | 243° |
| 2026-05-08 03:52 | 51.14109 | 162.56158 | 33807 ft | 414 kts | 243° |
| 2026-05-08 03:52 | 51.10934 | 162.48569 | 33801 ft | 411 kts | 243° |
| 2026-05-08 03:53 | 51.07751 | 162.40977 | 33795 ft | 415 kts | 243° |
| 2026-05-08 03:53 | 51.04572 | 162.33424 | 33819 ft | 411 kts | 243° |
| 2026-05-08 03:54 | 51.01393 | 162.25890 | 33823 ft | 412 kts | 242° |
| 2026-05-08 03:54 | 50.98206 | 162.18356 | 33818 ft | 413 kts | 242° |
| 2026-05-08 03:55 | 50.95037 | 162.10895 | 33812 ft | 407 kts | 243° |
| 2026-05-08 03:55 | 50.91874 | 162.03459 | 33826 ft | 406 kts | 242° |
| 2026-05-08 03:56 | 50.88711 | 161.96046 | 33819 ft | 410 kts | 243° |
| 2026-05-08 03:56 | 50.85549 | 161.88663 | 33814 ft | 404 kts | 242° |
| 2026-05-08 03:57 | 50.82384 | 161.81288 | 33833 ft | 404 kts | 243° |
| 2026-05-08 03:57 | 50.79277 | 161.74075 | 33812 ft | 396 kts | 243° |
| 2026-05-08 03:58 | 50.76156 | 161.66836 | 33803 ft | 400 kts | 243° |
| 2026-05-08 03:58 | 50.73009 | 161.59566 | 33822 ft | 401 kts | 243° |
| 2026-05-08 03:59 | 50.69900 | 161.52409 | 33809 ft | 396 kts | 243° |
| 2026-05-08 03:59 | 50.66797 | 161.45276 | 33833 ft | 393 kts | 243° |
| 2026-05-08 04:00 | 50.63726 | 161.38240 | 33784 ft | 393 kts | 244° |
| 2026-05-08 04:00 | 50.60645 | 161.31198 | 33856 ft | 389 kts | 243° |
| 2026-05-08 04:01 | 50.57575 | 161.24202 | 33851 ft | 387 kts | 243° |
| 2026-05-08 04:01 | 50.54528 | 161.17273 | 33826 ft | 390 kts | 243° |
| 2026-05-08 04:02 | 50.51419 | 161.10220 | 33848 ft | 392 kts | 243° |
| 2026-05-08 04:02 | 50.48346 | 161.03284 | 33830 ft | 381 kts | 244° |
| 2026-05-08 04:03 | 50.45303 | 160.96407 | 33863 ft | 391 kts | 244° |
| 2026-05-08 04:03 | 50.42250 | 160.89555 | 33840 ft | 378 kts | 244° |
| 2026-05-08 04:03 | 50.40725 | 160.86122 | 33833 ft | 386 kts | 244° |
| 2026-05-08 04:04 | 50.37674 | 160.79289 | 33832 ft | 380 kts | 244° |
| 2026-05-08 04:04 | 50.34679 | 160.72600 | 33831 ft | 376 kts | 244° |
| 2026-05-08 04:05 | 50.31660 | 160.65861 | 33826 ft | 378 kts | 244° |
| 2026-05-08 04:05 | 50.28667 | 160.59216 | 33809 ft | 373 kts | 244° |
| 2026-05-08 04:06 | 50.25661 | 160.52547 | 33814 ft | 372 kts | 244° |
| 2026-05-08 04:06 | 50.22682 | 160.45950 | 33836 ft | 374 kts | 243° |
| 2026-05-08 04:07 | 50.19712 | 160.39404 | 33812 ft | 365 kts | 243° |
| 2026-05-08 04:07 | 50.16741 | 160.32881 | 33823 ft | 370 kts | 243° |
| 2026-05-08 04:08 | 50.13780 | 160.26415 | 33851 ft | 372 kts | 244° |
| 2026-05-08 04:08 | 50.10807 | 160.19945 | 33839 ft | 363 kts | 244° |
| 2026-05-08 04:09 | 50.07847 | 160.13498 | 33848 ft | 369 kts | 244° |
| 2026-05-08 04:09 | 50.04887 | 160.07086 | 33841 ft | 362 kts | 244° |
| 2026-05-08 04:10 | 50.01976 | 160.00787 | 33861 ft | 358 kts | 244° |
| 2026-05-08 04:10 | 49.99062 | 159.94490 | 33831 ft | 362 kts | 244° |
| 2026-05-08 04:11 | 49.96146 | 159.88219 | 33834 ft | 354 kts | 244° |
| 2026-05-08 04:11 | 49.93234 | 159.81953 | 33829 ft | 359 kts | 244° |
| 2026-05-08 04:12 | 49.90340 | 159.75754 | 33833 ft | 355 kts | 243° |
| 2026-05-08 04:12 | 49.87432 | 159.69533 | 33834 ft | 358 kts | 244° |
| 2026-05-08 04:13 | 49.84506 | 159.63290 | 33831 ft | 355 kts | 243° |
| 2026-05-08 04:13 | 49.81611 | 159.57129 | 33830 ft | 358 kts | 244° |
| 2026-05-08 04:14 | 49.78676 | 159.50899 | 33827 ft | 355 kts | 243° |
| 2026-05-08 04:14 | 49.75756 | 159.44714 | 33828 ft | 355 kts | 243° |
| 2026-05-08 04:15 | 49.72845 | 159.38556 | 33829 ft | 361 kts | 243° |
| 2026-05-08 04:15 | 49.69874 | 159.32327 | 33847 ft | 360 kts | 242° |
| 2026-05-08 04:16 | 49.66867 | 159.26195 | 33853 ft | 364 kts | 242° |
| 2026-05-08 04:16 | 49.63831 | 159.20015 | 33851 ft | 360 kts | 243° |
| 2026-05-08 04:17 | 49.60778 | 159.13800 | 33849 ft | 363 kts | 242° |
| 2026-05-08 04:17 | 49.57746 | 159.07648 | 33849 ft | 363 kts | 243° |
| 2026-05-08 04:18 | 49.54699 | 159.01477 | 33849 ft | 362 kts | 242° |
| 2026-05-08 04:18 | 49.51659 | 158.95334 | 33849 ft | 360 kts | 242° |
| 2026-05-08 04:19 | 49.48609 | 158.89180 | 33845 ft | 364 kts | 242° |
| 2026-05-08 04:19 | 49.45545 | 158.83019 | 33845 ft | 364 kts | 242° |
| 2026-05-08 04:20 | 49.42488 | 158.76883 | 33840 ft | 362 kts | 242° |
| 2026-05-08 04:20 | 49.39418 | 158.70735 | 33843 ft | 362 kts | 242° |
| 2026-05-08 04:21 | 49.36348 | 158.64601 | 33839 ft | 364 kts | 241° |
| 2026-05-08 04:21 | 49.33273 | 158.58473 | 33841 ft | 363 kts | 241° |
| 2026-05-08 04:22 | 49.30177 | 158.52315 | 33836 ft | 366 kts | 242° |
| 2026-05-08 04:22 | 49.27094 | 158.46202 | 33832 ft | 363 kts | 242° |
| 2026-05-08 04:23 | 49.23990 | 158.40053 | 33837 ft | 364 kts | 241° |
| 2026-05-08 04:23 | 49.20887 | 158.33926 | 33844 ft | 365 kts | 241° |
| 2026-05-08 04:24 | 49.17786 | 158.27820 | 33863 ft | 363 kts | 241° |
| 2026-05-08 04:24 | 49.14681 | 158.21712 | 33859 ft | 364 kts | 240° |
| 2026-05-08 04:25 | 49.11586 | 158.15643 | 33863 ft | 364 kts | 241° |
| 2026-05-08 04:25 | 49.08479 | 158.09561 | 33858 ft | 364 kts | 240° |
| 2026-05-08 04:26 | 49.05374 | 158.03502 | 33858 ft | 363 kts | 240° |
| 2026-05-08 04:26 | 49.02262 | 157.97437 | 33857 ft | 366 kts | 241° |
| 2026-05-08 04:27 | 48.99143 | 157.91377 | 33853 ft | 365 kts | 241° |
| 2026-05-08 04:27 | 48.96017 | 157.85313 | 33851 ft | 363 kts | 240° |
| 2026-05-08 04:28 | 48.92906 | 157.79294 | 33853 ft | 365 kts | 240° |
| 2026-05-08 04:28 | 48.89799 | 157.73297 | 33853 ft | 364 kts | 241° |
| 2026-05-08 04:29 | 48.86657 | 157.67242 | 33855 ft | 365 kts | 240° |
| 2026-05-08 04:29 | 48.83514 | 157.61206 | 33855 ft | 364 kts | 240° |
| 2026-05-08 04:30 | 48.80356 | 157.55147 | 33852 ft | 366 kts | 240° |
| 2026-05-08 04:30 | 48.77955 | 157.50557 | 33849 ft | 362 kts | 240° |
| 2026-05-08 04:31 | 48.75090 | 157.45081 | 33848 ft | 366 kts | 240° |
| 2026-05-08 04:31 | 48.72155 | 157.39487 | 33848 ft | 365 kts | 240° |
| 2026-05-08 04:32 | 48.68993 | 157.33472 | 33867 ft | 369 kts | 240° |
| 2026-05-08 04:32 | 48.65866 | 157.27537 | 33874 ft | 368 kts | 240° |
| 2026-05-08 04:33 | 48.62680 | 157.21507 | 33875 ft | 366 kts | 239° |
| 2026-05-08 04:33 | 48.59500 | 157.15498 | 33869 ft | 368 kts | 240° |
| 2026-05-08 04:34 | 48.56313 | 157.09492 | 33870 ft | 368 kts | 240° |
| 2026-05-08 04:34 | 48.53093 | 157.03433 | 33868 ft | 369 kts | 239° |
| 2026-05-08 04:35 | 48.49947 | 156.97531 | 33867 ft | 369 kts | 239° |
| 2026-05-08 04:35 | 48.46751 | 156.91547 | 33867 ft | 370 kts | 239° |
| 2026-05-08 04:36 | 48.43539 | 156.85547 | 33866 ft | 369 kts | 239° |
| 2026-05-08 04:36 | 48.40296 | 156.79500 | 33863 ft | 370 kts | 239° |
| 2026-05-08 04:37 | 48.37050 | 156.73463 | 33862 ft | 370 kts | 239° |
| 2026-05-08 04:37 | 48.33815 | 156.67459 | 33859 ft | 371 kts | 239° |
| 2026-05-08 04:38 | 48.30579 | 156.61470 | 33861 ft | 372 kts | 239° |
| 2026-05-08 04:38 | 48.27329 | 156.55466 | 33860 ft | 370 kts | 239° |
| 2026-05-08 04:39 | 48.24052 | 156.49423 | 33859 ft | 372 kts | 240° |
| 2026-05-08 04:39 | 48.20804 | 156.43453 | 33857 ft | 371 kts | 239° |
| 2026-05-08 04:40 | 48.17536 | 156.37453 | 33857 ft | 373 kts | 240° |
| 2026-05-08 04:40 | 48.14259 | 156.31453 | 33879 ft | 373 kts | 239° |
| 2026-05-08 04:41 | 48.10960 | 156.25427 | 33881 ft | 373 kts | 238° |
| 2026-05-08 04:41 | 48.07673 | 156.19432 | 33879 ft | 376 kts | 239° |
| 2026-05-08 04:42 | 48.04363 | 156.13415 | 33879 ft | 373 kts | 238° |
| 2026-05-08 04:42 | 48.01054 | 156.07410 | 33878 ft | 374 kts | 239° |
| 2026-05-08 04:43 | 47.97741 | 156.01410 | 33878 ft | 375 kts | 239° |
| 2026-05-08 04:43 | 47.94442 | 155.95450 | 33872 ft | 375 kts | 239° |
| 2026-05-08 04:44 | 47.91103 | 155.89429 | 33879 ft | 377 kts | 238° |
| 2026-05-08 04:44 | 47.87780 | 155.83455 | 33874 ft | 372 kts | 238° |
| 2026-05-08 04:45 | 47.84450 | 155.77475 | 33885 ft | 378 kts | 239° |
| 2026-05-08 04:45 | 47.81120 | 155.71516 | 33878 ft | 373 kts | 239° |
| 2026-05-08 04:46 | 47.77785 | 155.65553 | 33888 ft | 377 kts | 238° |
| 2026-05-08 04:46 | 47.74447 | 155.59607 | 33879 ft | 373 kts | 238° |
| 2026-05-08 04:47 | 47.71088 | 155.53628 | 33881 ft | 377 kts | 238° |
| 2026-05-08 04:47 | 47.67728 | 155.47667 | 33883 ft | 375 kts | 238° |
| 2026-05-08 04:48 | 47.64378 | 155.41731 | 33876 ft | 377 kts | 238° |
| 2026-05-08 04:48 | 47.60996 | 155.35756 | 33881 ft | 377 kts | 238° |
| 2026-05-08 04:49 | 47.57603 | 155.29774 | 33901 ft | 377 kts | 238° |
| 2026-05-08 04:49 | 47.54187 | 155.23766 | 33902 ft | 376 kts | 237° |
| 2026-05-08 04:50 | 47.50807 | 155.17830 | 33902 ft | 377 kts | 238° |
| 2026-05-08 04:50 | 47.47441 | 155.11934 | 33901 ft | 378 kts | 238° |
| 2026-05-08 04:51 | 47.44036 | 155.05984 | 33898 ft | 376 kts | 237° |
| 2026-05-08 04:51 | 47.40652 | 155.00081 | 33896 ft | 377 kts | 237° |
| 2026-05-08 04:52 | 47.37288 | 154.94228 | 33890 ft | 376 kts | 237° |
| 2026-05-08 04:52 | 47.33871 | 154.88294 | 33898 ft | 378 kts | 237° |
| 2026-05-08 04:53 | 47.30486 | 154.82431 | 33889 ft | 377 kts | 237° |
| 2026-05-08 04:53 | 47.27077 | 154.76535 | 33892 ft | 378 kts | 237° |
| 2026-05-08 04:54 | 47.23662 | 154.70647 | 33895 ft | 376 kts | 237° |
| 2026-05-08 04:54 | 47.20262 | 154.64790 | 33894 ft | 379 kts | 237° |
| 2026-05-08 04:55 | 47.16839 | 154.58913 | 33897 ft | 377 kts | 237° |
| 2026-05-08 04:55 | 47.13419 | 154.53050 | 33889 ft | 379 kts | 237° |
| 2026-05-08 04:56 | 47.10009 | 154.47218 | 33891 ft | 378 kts | 237° |
| 2026-05-08 04:56 | 47.06555 | 154.41324 | 33892 ft | 378 kts | 237° |
| 2026-05-08 04:57 | 47.03122 | 154.35478 | 33896 ft | 381 kts | 237° |
| 2026-05-08 04:57 | 46.99656 | 154.29587 | 33916 ft | 380 kts | 236° |
| 2026-05-08 04:58 | 46.96223 | 154.23770 | 33916 ft | 378 kts | 236° |
| 2026-05-08 04:58 | 46.92770 | 154.17926 | 33913 ft | 378 kts | 236° |
| 2026-05-08 04:59 | 46.89323 | 154.12106 | 33917 ft | 381 kts | 236° |
| 2026-05-08 04:59 | 46.85863 | 154.06277 | 33921 ft | 380 kts | 236° |
| 2026-05-08 05:00 | 46.82396 | 154.00449 | 33919 ft | 381 kts | 236° |
| 2026-05-08 05:00 | 46.78919 | 153.94617 | 33920 ft | 379 kts | 236° |
| 2026-05-08 05:01 | 46.75443 | 153.88800 | 33916 ft | 380 kts | 236° |
| 2026-05-08 05:01 | 46.71983 | 153.83019 | 33915 ft | 381 kts | 236° |
| 2026-05-08 05:02 | 46.68480 | 153.77181 | 33916 ft | 380 kts | 236° |
| 2026-05-08 05:02 | 46.65006 | 153.71402 | 33934 ft | 382 kts | 236° |
| 2026-05-08 05:03 | 46.61514 | 153.65608 | 33908 ft | 380 kts | 236° |
| 2026-05-08 05:03 | 46.57987 | 153.59766 | 33912 ft | 380 kts | 236° |
| 2026-05-08 05:04 | 46.54501 | 153.54004 | 33909 ft | 382 kts | 236° |
| 2026-05-08 05:04 | 46.51028 | 153.48279 | 33908 ft | 381 kts | 236° |
| 2026-05-08 05:05 | 46.47539 | 153.42537 | 33902 ft | 382 kts | 236° |
| 2026-05-08 05:05 | 46.44012 | 153.36746 | 33906 ft | 380 kts | 236° |
| 2026-05-08 05:06 | 46.40505 | 153.30997 | 33922 ft | 383 kts | 234° |
| 2026-05-08 05:06 | 46.36992 | 153.25253 | 33927 ft | 381 kts | 235° |
| 2026-05-08 05:07 | 46.33466 | 153.19498 | 33920 ft | 382 kts | 235° |
| 2026-05-08 05:07 | 46.29957 | 153.13788 | 33925 ft | 382 kts | 235° |
| 2026-05-08 05:08 | 46.26422 | 153.08040 | 33922 ft | 382 kts | 235° |
| 2026-05-08 05:08 | 46.22883 | 153.02301 | 33918 ft | 381 kts | 234° |
| 2026-05-08 05:09 | 46.19330 | 152.96600 | 33919 ft | 382 kts | 234° |
| 2026-05-08 05:09 | 46.15765 | 152.90907 | 33916 ft | 382 kts | 234° |
| 2026-05-08 05:10 | 46.10419 | 152.82391 | 33921 ft | 383 kts | 234° |
| 2026-05-08 05:11 | 46.06833 | 152.76695 | 33906 ft | 382 kts | 234° |
| 2026-05-08 05:11 | 46.03289 | 152.71078 | 33911 ft | 381 kts | 235° |
| 2026-05-08 05:12 | 45.99700 | 152.65401 | 33905 ft | 383 kts | 234° |
| 2026-05-08 05:12 | 45.96135 | 152.59773 | 33905 ft | 382 kts | 234° |
| 2026-05-08 05:13 | 45.92567 | 152.54153 | 33903 ft | 382 kts | 234° |
| 2026-05-08 05:13 | 45.88988 | 152.48528 | 33904 ft | 382 kts | 234° |
| 2026-05-08 05:14 | 45.85379 | 152.42865 | 33909 ft | 384 kts | 234° |
| 2026-05-08 05:14 | 45.81782 | 152.37233 | 33911 ft | 383 kts | 234° |
| 2026-05-08 05:15 | 45.78188 | 152.31619 | 33925 ft | 385 kts | 233° |
| 2026-05-08 05:15 | 45.74562 | 152.25967 | 33929 ft | 384 kts | 234° |
| 2026-05-08 05:16 | 45.70963 | 152.20366 | 33922 ft | 384 kts | 233° |
| 2026-05-08 05:16 | 45.67359 | 152.14771 | 33923 ft | 386 kts | 233° |
| 2026-05-08 05:17 | 45.63742 | 152.09168 | 33919 ft | 384 kts | 233° |
| 2026-05-08 05:17 | 45.60085 | 152.03511 | 33920 ft | 386 kts | 233° |
| 2026-05-08 05:18 | 45.56452 | 151.97905 | 33918 ft | 385 kts | 233° |
| 2026-05-08 05:18 | 45.52834 | 151.92334 | 33921 ft | 388 kts | 233° |
| 2026-05-08 05:19 | 45.49178 | 151.86717 | 33916 ft | 384 kts | 233° |
| 2026-05-08 05:19 | 45.45550 | 151.81151 | 33912 ft | 387 kts | 233° |
| 2026-05-08 05:20 | 45.41875 | 151.75526 | 33915 ft | 387 kts | 233° |
| 2026-05-08 05:20 | 45.38237 | 151.69969 | 33908 ft | 388 kts | 233° |
| 2026-05-08 05:21 | 45.34557 | 151.64359 | 33912 ft | 387 kts | 233° |
| 2026-05-08 05:21 | 45.30907 | 151.58806 | 33900 ft | 387 kts | 233° |
| 2026-05-08 05:22 | 45.27208 | 151.53191 | 33901 ft | 388 kts | 233° |
| 2026-05-08 05:22 | 45.23547 | 151.47644 | 33898 ft | 389 kts | 232° |
| 2026-05-08 05:23 | 45.19835 | 151.42030 | 33895 ft | 389 kts | 232° |
| 2026-05-08 05:23 | 45.16132 | 151.36444 | 33895 ft | 391 kts | 232° |
| 2026-05-08 05:24 | 45.12434 | 151.30875 | 33910 ft | 391 kts | 232° |
| 2026-05-08 05:24 | 45.08722 | 151.25297 | 33909 ft | 393 kts | 232° |
| 2026-05-08 05:25 | 45.04977 | 151.19681 | 33905 ft | 393 kts | 231° |
| 2026-05-08 05:25 | 45.01232 | 151.14079 | 33901 ft | 391 kts | 232° |
| 2026-05-08 05:26 | 44.97504 | 151.08508 | 33901 ft | 393 kts | 232° |
| 2026-05-08 05:26 | 44.93786 | 151.02966 | 33895 ft | 392 kts | 231° |
| 2026-05-08 05:27 | 44.90008 | 150.97347 | 33887 ft | 394 kts | 232° |
| 2026-05-08 05:27 | 44.86251 | 150.91771 | 33897 ft | 393 kts | 231° |
| 2026-05-08 05:28 | 44.82494 | 150.86202 | 33897 ft | 395 kts | 231° |
| 2026-05-08 05:28 | 44.78731 | 150.80640 | 33894 ft | 395 kts | 231° |
| 2026-05-08 05:29 | 44.74970 | 150.75089 | 33888 ft | 394 kts | 231° |
| 2026-05-08 05:29 | 44.71198 | 150.69534 | 33886 ft | 396 kts | 231° |
| 2026-05-08 05:30 | 44.67413 | 150.63974 | 33887 ft | 391 kts | 231° |
| 2026-05-08 05:30 | 44.63631 | 150.58424 | 33881 ft | 395 kts | 231° |
| 2026-05-08 05:31 | 44.59811 | 150.52834 | 33880 ft | 397 kts | 231° |
| 2026-05-08 05:31 | 44.56036 | 150.47319 | 33876 ft | 395 kts | 231° |
| 2026-05-08 05:32 | 44.52221 | 150.41759 | 33867 ft | 396 kts | 232° |
| 2026-05-08 05:32 | 44.48415 | 150.36221 | 33871 ft | 394 kts | 231° |
| 2026-05-08 05:33 | 44.44624 | 150.30714 | 33882 ft | 400 kts | 231° |
| 2026-05-08 05:33 | 44.40785 | 150.25154 | 33882 ft | 394 kts | 231° |
| 2026-05-08 05:34 | 44.36983 | 150.19655 | 33875 ft | 397 kts | 231° |
| 2026-05-08 05:34 | 44.33134 | 150.14099 | 33875 ft | 396 kts | 231° |
| 2026-05-08 05:35 | 44.29290 | 150.08562 | 33871 ft | 399 kts | 231° |
| 2026-05-08 05:35 | 44.25442 | 150.03032 | 33866 ft | 399 kts | 231° |
| 2026-05-08 05:36 | 44.21605 | 149.97528 | 33865 ft | 397 kts | 231° |
| 2026-05-08 05:36 | 44.17756 | 149.92017 | 33858 ft | 399 kts | 231° |
| 2026-05-08 05:37 | 44.13878 | 149.86475 | 33863 ft | 399 kts | 231° |
| 2026-05-08 05:37 | 44.09999 | 149.80943 | 33859 ft | 401 kts | 231° |
| 2026-05-08 05:38 | 44.06117 | 149.75418 | 33856 ft | 402 kts | 231° |
| 2026-05-08 05:38 | 44.02214 | 149.69876 | 33853 ft | 400 kts | 231° |
| 2026-05-08 05:39 | 43.98301 | 149.64327 | 33852 ft | 402 kts | 231° |
| 2026-05-08 05:39 | 43.94414 | 149.58829 | 33854 ft | 404 kts | 231° |
| 2026-05-08 05:40 | 43.90487 | 149.53287 | 33851 ft | 401 kts | 231° |
| 2026-05-08 05:40 | 43.86606 | 149.47816 | 33856 ft | 403 kts | 231° |
| 2026-05-08 05:41 | 43.82667 | 149.42276 | 33858 ft | 404 kts | 231° |
| 2026-05-08 05:41 | 43.78728 | 149.36751 | 33853 ft | 402 kts | 231° |
| 2026-05-08 05:42 | 43.74790 | 149.31233 | 33866 ft | 406 kts | 230° |
| 2026-05-08 05:42 | 43.70854 | 149.25731 | 33868 ft | 404 kts | 230° |
| 2026-05-08 05:43 | 43.66900 | 149.20215 | 33869 ft | 405 kts | 230° |
| 2026-05-08 05:43 | 43.62946 | 149.14711 | 33870 ft | 406 kts | 230° |
| 2026-05-08 05:44 | 43.58990 | 149.09212 | 33862 ft | 407 kts | 230° |
| 2026-05-08 05:44 | 43.55009 | 149.03691 | 33855 ft | 405 kts | 230° |
| 2026-05-08 05:45 | 43.51039 | 148.98198 | 33857 ft | 406 kts | 230° |
| 2026-05-08 05:45 | 43.47060 | 148.92702 | 33854 ft | 408 kts | 230° |
| 2026-05-08 05:46 | 43.43069 | 148.87199 | 33848 ft | 407 kts | 229° |
| 2026-05-08 05:46 | 43.39083 | 148.81715 | 33841 ft | 407 kts | 230° |
| 2026-05-08 05:47 | 43.35076 | 148.76211 | 33847 ft | 409 kts | 229° |
| 2026-05-08 05:47 | 43.31077 | 148.70732 | 33838 ft | 408 kts | 229° |
| 2026-05-08 05:48 | 43.27043 | 148.65214 | 33838 ft | 410 kts | 229° |
| 2026-05-08 05:48 | 43.23010 | 148.59711 | 33840 ft | 409 kts | 230° |
| 2026-05-08 05:49 | 43.18969 | 148.54205 | 33832 ft | 410 kts | 229° |
| 2026-05-08 05:49 | 43.14909 | 148.48683 | 33831 ft | 413 kts | 229° |
| 2026-05-08 05:50 | 43.10869 | 148.43202 | 33827 ft | 411 kts | 229° |
| 2026-05-08 05:50 | 43.06802 | 148.37694 | 33822 ft | 412 kts | 229° |
| 2026-05-08 05:51 | 43.02724 | 148.32182 | 33839 ft | 413 kts | 229° |
| 2026-05-08 05:51 | 42.98662 | 148.26703 | 33840 ft | 413 kts | 229° |
| 2026-05-08 05:52 | 42.94574 | 148.21199 | 33839 ft | 415 kts | 228° |
| 2026-05-08 05:52 | 42.90461 | 148.15672 | 33833 ft | 415 kts | 228° |
| 2026-05-08 05:53 | 42.86356 | 148.10169 | 33839 ft | 414 kts | 228° |
| 2026-05-08 05:53 | 42.82274 | 148.04704 | 33837 ft | 414 kts | 228° |
| 2026-05-08 05:54 | 42.78175 | 147.99229 | 33836 ft | 414 kts | 228° |
| 2026-05-08 05:54 | 42.74061 | 147.93745 | 33838 ft | 415 kts | 228° |
| 2026-05-08 05:55 | 42.69947 | 147.88272 | 33836 ft | 415 kts | 228° |
| 2026-05-08 05:55 | 42.65823 | 147.82797 | 33836 ft | 415 kts | 228° |
| 2026-05-08 05:56 | 42.61696 | 147.77327 | 33837 ft | 416 kts | 228° |
| 2026-05-08 05:56 | 42.57558 | 147.71854 | 33829 ft | 414 kts | 228° |
| 2026-05-08 05:57 | 42.53451 | 147.66432 | 33829 ft | 416 kts | 228° |
| 2026-05-08 05:57 | 42.49293 | 147.60954 | 33832 ft | 415 kts | 227° |
| 2026-05-08 05:58 | 42.45172 | 147.55536 | 33827 ft | 419 kts | 228° |
| 2026-05-08 05:58 | 42.41010 | 147.50073 | 33828 ft | 417 kts | 228° |
| 2026-05-08 05:59 | 42.36853 | 147.44624 | 33829 ft | 419 kts | 228° |
| 2026-05-08 05:59 | 42.32674 | 147.39149 | 33820 ft | 417 kts | 228° |
| 2026-05-08 06:00 | 42.28507 | 147.33699 | 33834 ft | 419 kts | 227° |
| 2026-05-08 06:00 | 42.24309 | 147.28221 | 33838 ft | 420 kts | 227° |
| 2026-05-08 06:01 | 42.20118 | 147.22765 | 33836 ft | 419 kts | 227° |
| 2026-05-08 06:01 | 42.15928 | 147.17319 | 33833 ft | 421 kts | 227° |
| 2026-05-08 06:02 | 42.11721 | 147.11861 | 33829 ft | 420 kts | 227° |